sensor_id;sensor_type;location;lat;lon;timestamp;temperature;humidity
75819;DHT22;64453;51.944;9.796;2023-07-29T00:01:19;22.90;65.40
75819;DHT22;64453;51.944;9.796;2023-07-29T00:03:46;23.00;65.30
75819;DHT22;64453;51.944;9.796;2023-07-29T00:06:13;23.30;65.10
75819;DHT22;64453;51.944;9.796;2023-07-29T00:08:42;23.60;64.20
75819;DHT22;64453;51.944;9.796;2023-07-29T00:11:09;23.20;63.70
75819;DHT22;64453;51.944;9.796;2023-07-29T00:13:36;23.40;64.90
75819;DHT22;64453;51.944;9.796;2023-07-29T00:16:03;23.50;64.30
75819;DHT22;64453;51.944;9.796;2023-07-29T00:18:31;23.30;64.10
75819;DHT22;64453;51.944;9.796;2023-07-29T00:20:58;23.20;63.80
75819;DHT22;64453;51.944;9.796;2023-07-29T00:23:26;23.00;64.20
75819;DHT22;64453;51.944;9.796;2023-07-29T00:25:54;23.00;64.80
75819;DHT22;64453;51.944;9.796;2023-07-29T00:28:21;23.00;64.80
75819;DHT22;64453;51.944;9.796;2023-07-29T00:30:48;23.00;65.20
75819;DHT22;64453;51.944;9.796;2023-07-29T00:33:15;22.60;66.60
75819;DHT22;64453;51.944;9.796;2023-07-29T00:35:42;22.90;67.00
75819;DHT22;64453;51.944;9.796;2023-07-29T00:38:09;22.90;66.40
75819;DHT22;64453;51.944;9.796;2023-07-29T00:40:37;22.90;65.50
75819;DHT22;64453;51.944;9.796;2023-07-29T00:43:06;22.70;65.50
75819;DHT22;64453;51.944;9.796;2023-07-29T00:45:34;22.90;66.10
75819;DHT22;64453;51.944;9.796;2023-07-29T00:48:03;22.80;70.10
75819;DHT22;64453;51.944;9.796;2023-07-29T00:50:32;22.90;66.20
75819;DHT22;64453;51.944;9.796;2023-07-29T00:52:59;22.40;66.00
75819;DHT22;64453;51.944;9.796;2023-07-29T00:55:25;22.70;65.70
75819;DHT22;64453;51.944;9.796;2023-07-29T00:57:52;22.60;66.00
75819;DHT22;64453;51.944;9.796;2023-07-29T01:00:22;22.50;66.00
75819;DHT22;64453;51.944;9.796;2023-07-29T01:02:50;22.30;66.80
75819;DHT22;64453;51.944;9.796;2023-07-29T01:05:18;22.00;67.90
75819;DHT22;64453;51.944;9.796;2023-07-29T01:07:51;22.30;66.40
75819;DHT22;64453;51.944;9.796;2023-07-29T01:10:30;22.30;65.70
75819;DHT22;64453;51.944;9.796;2023-07-29T01:13:05;22.30;67.50
75819;DHT22;64453;51.944;9.796;2023-07-29T01:15:43;22.20;66.90
75819;DHT22;64453;51.944;9.796;2023-07-29T01:18:17;21.80;66.60
75819;DHT22;64453;51.944;9.796;2023-07-29T01:20:47;22.00;67.00
75819;DHT22;64453;51.944;9.796;2023-07-29T01:23:16;21.90;68.70
75819;DHT22;64453;51.944;9.796;2023-07-29T01:25:44;22.20;68.70
75819;DHT22;64453;51.944;9.796;2023-07-29T01:28:12;22.10;68.30
75819;DHT22;64453;51.944;9.796;2023-07-29T01:30:40;22.10;67.70
75819;DHT22;64453;51.944;9.796;2023-07-29T01:33:16;22.00;68.50
75819;DHT22;64453;51.944;9.796;2023-07-29T01:35:47;21.90;67.50
75819;DHT22;64453;51.944;9.796;2023-07-29T01:38:19;22.10;67.50
75819;DHT22;64453;51.944;9.796;2023-07-29T01:40:50;22.30;66.60
75819;DHT22;64453;51.944;9.796;2023-07-29T01:43:18;21.90;66.80
75819;DHT22;64453;51.944;9.796;2023-07-29T01:45:49;22.30;67.50
75819;DHT22;64453;51.944;9.796;2023-07-29T01:48:16;22.10;66.80
75819;DHT22;64453;51.944;9.796;2023-07-29T01:50:43;22.40;66.70
75819;DHT22;64453;51.944;9.796;2023-07-29T01:53:11;22.50;65.70
75819;DHT22;64453;51.944;9.796;2023-07-29T01:55:38;22.60;65.90
75819;DHT22;64453;51.944;9.796;2023-07-29T01:58:07;22.50;66.00
75819;DHT22;64453;51.944;9.796;2023-07-29T02:00:34;22.10;66.70
75819;DHT22;64453;51.944;9.796;2023-07-29T02:03:01;22.50;66.70
75819;DHT22;64453;51.944;9.796;2023-07-29T02:05:28;22.50;66.40
75819;DHT22;64453;51.944;9.796;2023-07-29T02:07:55;22.70;66.50
75819;DHT22;64453;51.944;9.796;2023-07-29T02:10:22;22.70;66.60
75819;DHT22;64453;51.944;9.796;2023-07-29T02:12:49;22.20;68.20
75819;DHT22;64453;51.944;9.796;2023-07-29T02:15:22;22.40;68.50
75819;DHT22;64453;51.944;9.796;2023-07-29T02:17:50;22.60;67.90
75819;DHT22;64453;51.944;9.796;2023-07-29T02:20:17;22.30;67.90
75819;DHT22;64453;51.944;9.796;2023-07-29T02:22:45;22.60;68.60
75819;DHT22;64453;51.944;9.796;2023-07-29T02:25:16;22.60;68.50
75819;DHT22;64453;51.944;9.796;2023-07-29T02:27:43;22.70;68.50
75819;DHT22;64453;51.944;9.796;2023-07-29T02:30:11;22.80;68.30
75819;DHT22;64453;51.944;9.796;2023-07-29T02:32:39;22.80;68.20
75819;DHT22;64453;51.944;9.796;2023-07-29T02:35:07;22.90;68.30
75819;DHT22;64453;51.944;9.796;2023-07-29T02:37:35;22.70;68.60
75819;DHT22;64453;51.944;9.796;2023-07-29T02:40:02;22.90;68.50
75819;DHT22;64453;51.944;9.796;2023-07-29T02:42:31;22.70;68.80
75819;DHT22;64453;51.944;9.796;2023-07-29T02:44:58;22.80;69.20
75819;DHT22;64453;51.944;9.796;2023-07-29T02:47:25;22.80;69.20
75819;DHT22;64453;51.944;9.796;2023-07-29T02:49:56;22.80;69.90
75819;DHT22;64453;51.944;9.796;2023-07-29T02:52:23;22.90;69.80
75819;DHT22;64453;51.944;9.796;2023-07-29T02:54:50;22.70;70.00
75819;DHT22;64453;51.944;9.796;2023-07-29T02:57:17;22.80;70.00
75819;DHT22;64453;51.944;9.796;2023-07-29T02:59:45;22.80;70.20
75819;DHT22;64453;51.944;9.796;2023-07-29T03:02:12;22.90;70.00
75819;DHT22;64453;51.944;9.796;2023-07-29T03:04:41;23.00;69.80
75819;DHT22;64453;51.944;9.796;2023-07-29T03:07:14;23.00;69.80
75819;DHT22;64453;51.944;9.796;2023-07-29T03:09:41;22.90;70.30
75819;DHT22;64453;51.944;9.796;2023-07-29T03:12:09;23.00;70.30
75819;DHT22;64453;51.944;9.796;2023-07-29T03:14:36;22.50;70.50
75819;DHT22;64453;51.944;9.796;2023-07-29T03:17:06;22.80;70.50
75819;DHT22;64453;51.944;9.796;2023-07-29T03:19:33;22.90;70.10
75819;DHT22;64453;51.944;9.796;2023-07-29T03:22:00;22.70;70.40
75819;DHT22;64453;51.944;9.796;2023-07-29T03:24:29;22.90;70.30
75819;DHT22;64453;51.944;9.796;2023-07-29T03:26:56;22.80;70.40
75819;DHT22;64453;51.944;9.796;2023-07-29T03:29:23;22.90;70.60
75819;DHT22;64453;51.944;9.796;2023-07-29T03:31:50;22.80;70.80
75819;DHT22;64453;51.944;9.796;2023-07-29T03:34:17;22.90;70.80
75819;DHT22;64453;51.944;9.796;2023-07-29T03:36:45;22.90;70.80
75819;DHT22;64453;51.944;9.796;2023-07-29T03:39:14;22.90;70.90
75819;DHT22;64453;51.944;9.796;2023-07-29T03:41:43;23.00;71.30
75819;DHT22;64453;51.944;9.796;2023-07-29T03:44:10;23.20;71.30
75819;DHT22;64453;51.944;9.796;2023-07-29T03:46:37;23.30;71.40
75819;DHT22;64453;51.944;9.796;2023-07-29T03:49:04;23.30;71.50
75819;DHT22;64453;51.944;9.796;2023-07-29T03:51:31;23.30;71.70
75819;DHT22;64453;51.944;9.796;2023-07-29T03:53:58;23.30;71.70
75819;DHT22;64453;51.944;9.796;2023-07-29T03:56:26;23.40;71.80
75819;DHT22;64453;51.944;9.796;2023-07-29T03:59:02;23.40;71.50
75819;DHT22;64453;51.944;9.796;2023-07-29T04:01:30;23.30;71.80
75819;DHT22;64453;51.944;9.796;2023-07-29T04:03:57;23.30;72.20
75819;DHT22;64453;51.944;9.796;2023-07-29T04:06:24;23.30;72.20
75819;DHT22;64453;51.944;9.796;2023-07-29T04:08:52;23.30;72.30
75819;DHT22;64453;51.944;9.796;2023-07-29T04:11:19;23.30;72.50
75819;DHT22;64453;51.944;9.796;2023-07-29T04:13:46;23.20;72.80
75819;DHT22;64453;51.944;9.796;2023-07-29T04:16:15;23.30;73.10
75819;DHT22;64453;51.944;9.796;2023-07-29T04:18:42;23.40;73.40
75819;DHT22;64453;51.944;9.796;2023-07-29T04:21:09;23.30;73.70
75819;DHT22;64453;51.944;9.796;2023-07-29T04:23:37;23.40;73.90
75819;DHT22;64453;51.944;9.796;2023-07-29T04:26:04;23.30;73.20
75819;DHT22;64453;51.944;9.796;2023-07-29T04:28:31;23.10;73.30
75819;DHT22;64453;51.944;9.796;2023-07-29T04:30:58;23.00;74.20
75819;DHT22;64453;51.944;9.796;2023-07-29T04:33:29;23.30;73.90
75819;DHT22;64453;51.944;9.796;2023-07-29T04:35:56;23.30;73.70
75819;DHT22;64453;51.944;9.796;2023-07-29T04:38:30;23.30;73.30
75819;DHT22;64453;51.944;9.796;2023-07-29T04:40:58;23.30;73.40
75819;DHT22;64453;51.944;9.796;2023-07-29T04:43:27;23.40;73.70
75819;DHT22;64453;51.944;9.796;2023-07-29T04:45:54;23.40;74.10
75819;DHT22;64453;51.944;9.796;2023-07-29T04:48:21;23.40;74.40
75819;DHT22;64453;51.944;9.796;2023-07-29T04:50:50;23.40;74.40
75819;DHT22;64453;51.944;9.796;2023-07-29T04:53:18;23.40;74.60
75819;DHT22;64453;51.944;9.796;2023-07-29T04:55:45;23.30;74.50
75819;DHT22;64453;51.944;9.796;2023-07-29T04:58:13;23.30;75.30
75819;DHT22;64453;51.944;9.796;2023-07-29T05:00:40;23.40;75.90
75819;DHT22;64453;51.944;9.796;2023-07-29T05:03:07;23.30;75.30
75819;DHT22;64453;51.944;9.796;2023-07-29T05:05:35;23.20;76.20
75819;DHT22;64453;51.944;9.796;2023-07-29T05:08:04;23.30;76.80
75819;DHT22;64453;51.944;9.796;2023-07-29T05:10:31;23.20;77.50
75819;DHT22;64453;51.944;9.796;2023-07-29T05:12:58;23.20;76.70
75819;DHT22;64453;51.944;9.796;2023-07-29T05:15:25;23.20;77.60
75819;DHT22;64453;51.944;9.796;2023-07-29T05:17:52;23.30;77.50
75819;DHT22;64453;51.944;9.796;2023-07-29T05:20:19;23.30;77.60
75819;DHT22;64453;51.944;9.796;2023-07-29T05:22:46;23.40;77.70
75819;DHT22;64453;51.944;9.796;2023-07-29T05:25:15;23.40;77.90
75819;DHT22;64453;51.944;9.796;2023-07-29T05:27:42;23.50;78.20
75819;DHT22;64453;51.944;9.796;2023-07-29T05:30:10;23.50;77.40
75819;DHT22;64453;51.944;9.796;2023-07-29T05:32:37;23.50;77.10
75819;DHT22;64453;51.944;9.796;2023-07-29T05:35:05;23.50;77.10
75819;DHT22;64453;51.944;9.796;2023-07-29T05:37:33;23.40;77.50
75819;DHT22;64453;51.944;9.796;2023-07-29T05:40:00;23.40;78.10
75819;DHT22;64453;51.944;9.796;2023-07-29T05:42:30;23.50;78.60
75819;DHT22;64453;51.944;9.796;2023-07-29T05:44:57;23.50;78.50
75819;DHT22;64453;51.944;9.796;2023-07-29T05:47:24;23.40;78.70
75819;DHT22;64453;51.944;9.796;2023-07-29T05:49:52;23.40;78.50
75819;DHT22;64453;51.944;9.796;2023-07-29T05:52:20;23.40;78.60
75819;DHT22;64453;51.944;9.796;2023-07-29T05:54:47;23.40;78.70
75819;DHT22;64453;51.944;9.796;2023-07-29T05:57:14;23.40;79.10
75819;DHT22;64453;51.944;9.796;2023-07-29T05:59:42;23.40;78.80
75819;DHT22;64453;51.944;9.796;2023-07-29T06:02:10;23.50;78.70
75819;DHT22;64453;51.944;9.796;2023-07-29T06:04:37;23.40;78.80
75819;DHT22;64453;51.944;9.796;2023-07-29T06:07:05;23.50;78.90
75819;DHT22;64453;51.944;9.796;2023-07-29T06:09:33;23.50;79.30
75819;DHT22;64453;51.944;9.796;2023-07-29T06:12:00;23.50;79.60
75819;DHT22;64453;51.944;9.796;2023-07-29T06:14:27;23.50;80.00
75819;DHT22;64453;51.944;9.796;2023-07-29T06:16:56;23.50;79.60
75819;DHT22;64453;51.944;9.796;2023-07-29T06:19:23;23.60;80.00
75819;DHT22;64453;51.944;9.796;2023-07-29T06:21:51;23.50;80.00
75819;DHT22;64453;51.944;9.796;2023-07-29T06:24:20;23.50;79.20
75819;DHT22;64453;51.944;9.796;2023-07-29T06:26:47;23.50;79.60
75819;DHT22;64453;51.944;9.796;2023-07-29T06:29:14;23.40;78.50
75819;DHT22;64453;51.944;9.796;2023-07-29T06:31:41;23.50;81.10
75819;DHT22;64453;51.944;9.796;2023-07-29T06:34:10;23.60;81.00
75819;DHT22;64453;51.944;9.796;2023-07-29T06:36:38;23.70;81.40
75819;DHT22;64453;51.944;9.796;2023-07-29T06:39:05;23.70;81.90
75819;DHT22;64453;51.944;9.796;2023-07-29T06:41:32;23.70;80.90
75819;DHT22;64453;51.944;9.796;2023-07-29T06:43:59;23.60;78.40
75819;DHT22;64453;51.944;9.796;2023-07-29T06:46:26;23.60;78.30
75819;DHT22;64453;51.944;9.796;2023-07-29T06:48:54;23.70;79.80
75819;DHT22;64453;51.944;9.796;2023-07-29T06:51:22;23.70;80.30
75819;DHT22;64453;51.944;9.796;2023-07-29T06:53:50;23.80;80.10
75819;DHT22;64453;51.944;9.796;2023-07-29T06:56:17;23.80;79.40
75819;DHT22;64453;51.944;9.796;2023-07-29T06:58:45;23.80;80.30
75819;DHT22;64453;51.944;9.796;2023-07-29T07:01:12;23.60;79.40
75819;DHT22;64453;51.944;9.796;2023-07-29T07:03:39;23.50;79.60
75819;DHT22;64453;51.944;9.796;2023-07-29T07:06:06;23.50;79.80
75819;DHT22;64453;51.944;9.796;2023-07-29T07:08:35;23.20;79.70
75819;DHT22;64453;51.944;9.796;2023-07-29T07:11:02;23.10;81.40
75819;DHT22;64453;51.944;9.796;2023-07-29T07:13:29;23.40;81.50
75819;DHT22;64453;51.944;9.796;2023-07-29T07:15:57;23.60;80.40
75819;DHT22;64453;51.944;9.796;2023-07-29T07:18:24;23.60;80.80
75819;DHT22;64453;51.944;9.796;2023-07-29T07:20:51;23.60;81.70
75819;DHT22;64453;51.944;9.796;2023-07-29T07:23:19;23.70;81.50
75819;DHT22;64453;51.944;9.796;2023-07-29T07:25:48;23.70;81.70
75819;DHT22;64453;51.944;9.796;2023-07-29T07:28:15;23.80;81.40
75819;DHT22;64453;51.944;9.796;2023-07-29T07:30:42;23.70;80.70
75819;DHT22;64453;51.944;9.796;2023-07-29T07:33:10;23.80;80.50
75819;DHT22;64453;51.944;9.796;2023-07-29T07:35:37;23.70;80.10
75819;DHT22;64453;51.944;9.796;2023-07-29T07:38:04;23.70;81.70
75819;DHT22;64453;51.944;9.796;2023-07-29T07:40:33;23.70;81.90
75819;DHT22;64453;51.944;9.796;2023-07-29T07:43:02;23.80;81.90
75819;DHT22;64453;51.944;9.796;2023-07-29T07:45:29;23.80;81.20
75819;DHT22;64453;51.944;9.796;2023-07-29T07:47:56;23.80;81.70
75819;DHT22;64453;51.944;9.796;2023-07-29T07:50:23;23.80;82.60
75819;DHT22;64453;51.944;9.796;2023-07-29T07:52:51;23.90;82.80
75819;DHT22;64453;51.944;9.796;2023-07-29T07:55:18;23.90;83.00
75819;DHT22;64453;51.944;9.796;2023-07-29T07:57:45;23.90;82.30
75819;DHT22;64453;51.944;9.796;2023-07-29T08:00:15;24.00;82.60
75819;DHT22;64453;51.944;9.796;2023-07-29T08:02:44;23.90;82.30
75819;DHT22;64453;51.944;9.796;2023-07-29T08:05:12;24.00;82.30
75819;DHT22;64453;51.944;9.796;2023-07-29T08:07:39;24.00;82.10
75819;DHT22;64453;51.944;9.796;2023-07-29T08:10:07;24.10;82.10
75819;DHT22;64453;51.944;9.796;2023-07-29T08:12:35;24.10;81.60
75819;DHT22;64453;51.944;9.796;2023-07-29T08:15:02;24.10;81.90
75819;DHT22;64453;51.944;9.796;2023-07-29T08:17:31;24.00;82.10
75819;DHT22;64453;51.944;9.796;2023-07-29T08:19:58;24.10;81.70
75819;DHT22;64453;51.944;9.796;2023-07-29T08:22:25;24.10;81.40
75819;DHT22;64453;51.944;9.796;2023-07-29T08:24:52;24.00;82.00
75819;DHT22;64453;51.944;9.796;2023-07-29T08:27:21;23.80;79.70
75819;DHT22;64453;51.944;9.796;2023-07-29T08:29:48;23.90;81.60
75819;DHT22;64453;51.944;9.796;2023-07-29T08:32:16;24.00;82.30
75819;DHT22;64453;51.944;9.796;2023-07-29T08:34:45;24.00;82.80
75819;DHT22;64453;51.944;9.796;2023-07-29T08:37:12;24.00;82.70
75819;DHT22;64453;51.944;9.796;2023-07-29T08:39:39;24.00;82.20
75819;DHT22;64453;51.944;9.796;2023-07-29T08:42:08;24.00;82.30
75819;DHT22;64453;51.944;9.796;2023-07-29T08:44:41;24.00;82.90
75819;DHT22;64453;51.944;9.796;2023-07-29T08:47:09;24.00;82.20
75819;DHT22;64453;51.944;9.796;2023-07-29T08:49:36;24.00;81.20
75819;DHT22;64453;51.944;9.796;2023-07-29T08:52:07;24.00;81.10
75819;DHT22;64453;51.944;9.796;2023-07-29T08:54:34;24.00;81.90
75819;DHT22;64453;51.944;9.796;2023-07-29T08:57:01;23.90;80.60
75819;DHT22;64453;51.944;9.796;2023-07-29T08:59:29;23.90;79.80
75819;DHT22;64453;51.944;9.796;2023-07-29T09:01:57;24.10;80.70
75819;DHT22;64453;51.944;9.796;2023-07-29T09:04:25;24.10;80.20
75819;DHT22;64453;51.944;9.796;2023-07-29T09:06:56;24.10;78.90
75819;DHT22;64453;51.944;9.796;2023-07-29T09:09:25;24.00;79.40
75819;DHT22;64453;51.944;9.796;2023-07-29T09:11:52;23.90;79.40
75819;DHT22;64453;51.944;9.796;2023-07-29T09:14:20;24.10;80.30
75819;DHT22;64453;51.944;9.796;2023-07-29T09:16:47;24.00;78.60
75819;DHT22;64453;51.944;9.796;2023-07-29T09:19:14;24.20;79.90
75819;DHT22;64453;51.944;9.796;2023-07-29T09:21:42;24.10;78.50
75819;DHT22;64453;51.944;9.796;2023-07-29T09:24:09;24.10;79.80
75819;DHT22;64453;51.944;9.796;2023-07-29T09:26:41;24.20;81.20
75819;DHT22;64453;51.944;9.796;2023-07-29T09:29:15;24.20;81.70
75819;DHT22;64453;51.944;9.796;2023-07-29T09:31:42;24.00;80.40
75819;DHT22;64453;51.944;9.796;2023-07-29T09:34:10;23.90;80.90
75819;DHT22;64453;51.944;9.796;2023-07-29T09:36:42;24.10;84.10
75819;DHT22;64453;51.944;9.796;2023-07-29T09:39:11;24.20;80.10
75819;DHT22;64453;51.944;9.796;2023-07-29T09:41:40;24.10;81.10
75819;DHT22;64453;51.944;9.796;2023-07-29T09:44:07;24.20;81.00
75819;DHT22;64453;51.944;9.796;2023-07-29T09:46:37;24.10;81.20
75819;DHT22;64453;51.944;9.796;2023-07-29T09:49:05;24.40;80.00
75819;DHT22;64453;51.944;9.796;2023-07-29T09:51:37;24.40;79.50
75819;DHT22;64453;51.944;9.796;2023-07-29T09:54:07;24.40;80.10
75819;DHT22;64453;51.944;9.796;2023-07-29T09:56:41;24.00;78.90
75819;DHT22;64453;51.944;9.796;2023-07-29T09:59:12;23.90;77.70
75819;DHT22;64453;51.944;9.796;2023-07-29T10:01:39;23.90;81.10
75819;DHT22;64453;51.944;9.796;2023-07-29T10:04:08;24.10;80.30
75819;DHT22;64453;51.944;9.796;2023-07-29T10:06:41;24.10;79.10
75819;DHT22;64453;51.944;9.796;2023-07-29T10:09:11;24.20;78.30
75819;DHT22;64453;51.944;9.796;2023-07-29T10:11:43;24.30;78.30
75819;DHT22;64453;51.944;9.796;2023-07-29T10:14:11;24.10;76.40
75819;DHT22;64453;51.944;9.796;2023-07-29T10:16:39;24.20;76.00
75819;DHT22;64453;51.944;9.796;2023-07-29T10:19:07;24.10;76.40
75819;DHT22;64453;51.944;9.796;2023-07-29T10:21:36;24.10;77.50
75819;DHT22;64453;51.944;9.796;2023-07-29T10:24:08;24.20;76.10
75819;DHT22;64453;51.944;9.796;2023-07-29T10:26:38;24.10;76.40
75819;DHT22;64453;51.944;9.796;2023-07-29T10:29:07;23.80;75.40
75819;DHT22;64453;51.944;9.796;2023-07-29T10:31:43;23.70;76.50
75819;DHT22;64453;51.944;9.796;2023-07-29T10:34:11;23.60;77.30
75819;DHT22;64453;51.944;9.796;2023-07-29T10:36:41;23.50;75.10
75819;DHT22;64453;51.944;9.796;2023-07-29T10:39:08;23.60;75.30
75819;DHT22;64453;51.944;9.796;2023-07-29T10:41:56;23.50;75.90
75819;DHT22;64453;51.944;9.796;2023-07-29T10:44:50;23.40;76.20
75819;DHT22;64453;51.944;9.796;2023-07-29T10:47:20;23.90;76.80
75819;DHT22;64453;51.944;9.796;2023-07-29T10:49:51;23.80;74.30
75819;DHT22;64453;51.944;9.796;2023-07-29T10:52:31;23.80;71.80
75819;DHT22;64453;51.944;9.796;2023-07-29T10:55:23;23.70;73.70
75819;DHT22;64453;51.944;9.796;2023-07-29T10:57:51;23.40;74.40
75819;DHT22;64453;51.944;9.796;2023-07-29T11:00:21;23.60;71.80
75819;DHT22;64453;51.944;9.796;2023-07-29T11:02:59;23.70;72.40
75819;DHT22;64453;51.944;9.796;2023-07-29T11:05:42;23.80;73.20
75819;DHT22;64453;51.944;9.796;2023-07-29T11:08:21;23.60;71.60
75819;DHT22;64453;51.944;9.796;2023-07-29T11:11:02;23.70;68.60
75819;DHT22;64453;51.944;9.796;2023-07-29T11:13:34;23.70;69.40
75819;DHT22;64453;51.944;9.796;2023-07-29T11:16:05;23.40;69.00
75819;DHT22;64453;51.944;9.796;2023-07-29T11:18:34;23.40;67.50
75819;DHT22;64453;51.944;9.796;2023-07-29T11:21:03;23.30;67.60
75819;DHT22;64453;51.944;9.796;2023-07-29T11:23:33;23.70;66.10
75819;DHT22;64453;51.944;9.796;2023-07-29T11:26:02;23.50;66.00
75819;DHT22;64453;51.944;9.796;2023-07-29T11:28:30;23.80;64.00
75819;DHT22;64453;51.944;9.796;2023-07-29T11:30:58;24.10;64.60
75819;DHT22;64453;51.944;9.796;2023-07-29T11:33:27;24.10;59.10
75819;DHT22;64453;51.944;9.796;2023-07-29T11:35:55;24.20;59.70
75819;DHT22;64453;51.944;9.796;2023-07-29T11:38:24;24.20;59.10
75819;DHT22;64453;51.944;9.796;2023-07-29T11:40:56;24.40;58.50
75819;DHT22;64453;51.944;9.796;2023-07-29T11:43:25;24.20;58.50
75819;DHT22;64453;51.944;9.796;2023-07-29T11:45:52;24.20;57.20
75819;DHT22;64453;51.944;9.796;2023-07-29T11:48:28;23.80;56.30
75819;DHT22;64453;51.944;9.796;2023-07-29T11:50:57;24.00;55.60
75819;DHT22;64453;51.944;9.796;2023-07-29T11:53:27;24.10;55.10
75819;DHT22;64453;51.944;9.796;2023-07-29T11:55:55;23.90;53.90
75819;DHT22;64453;51.944;9.796;2023-07-29T11:58:23;24.30;54.50
75819;DHT22;64453;51.944;9.796;2023-07-29T12:00:51;24.10;53.00
75819;DHT22;64453;51.944;9.796;2023-07-29T12:03:19;24.10;53.30
75819;DHT22;64453;51.944;9.796;2023-07-29T12:05:48;24.10;53.00
75819;DHT22;64453;51.944;9.796;2023-07-29T12:08:15;24.00;55.30
75819;DHT22;64453;51.944;9.796;2023-07-29T12:10:43;24.20;52.60
75819;DHT22;64453;51.944;9.796;2023-07-29T12:13:10;24.20;53.10
75819;DHT22;64453;51.944;9.796;2023-07-29T12:15:38;24.40;53.00
75819;DHT22;64453;51.944;9.796;2023-07-29T12:18:06;24.40;53.60
75819;DHT22;64453;51.944;9.796;2023-07-29T12:20:34;24.10;52.90
75819;DHT22;64453;51.944;9.796;2023-07-29T12:23:03;24.30;54.10
75819;DHT22;64453;51.944;9.796;2023-07-29T12:25:31;24.40;53.70
75819;DHT22;64453;51.944;9.796;2023-07-29T12:28:02;24.50;53.90
75819;DHT22;64453;51.944;9.796;2023-07-29T12:30:30;24.60;52.60
75819;DHT22;64453;51.944;9.796;2023-07-29T12:32:57;24.70;54.10
75819;DHT22;64453;51.944;9.796;2023-07-29T12:35:33;25.00;51.90
75819;DHT22;64453;51.944;9.796;2023-07-29T12:38:03;24.70;52.20
75819;DHT22;64453;51.944;9.796;2023-07-29T12:40:30;24.80;51.90
75819;DHT22;64453;51.944;9.796;2023-07-29T12:42:57;25.00;53.20
75819;DHT22;64453;51.944;9.796;2023-07-29T12:45:24;25.20;53.10
75819;DHT22;64453;51.944;9.796;2023-07-29T12:47:55;25.20;53.20
75819;DHT22;64453;51.944;9.796;2023-07-29T12:50:22;25.10;51.40
75819;DHT22;64453;51.944;9.796;2023-07-29T12:52:50;25.40;52.30
75819;DHT22;64453;51.944;9.796;2023-07-29T12:55:18;25.30;51.00
75819;DHT22;64453;51.944;9.796;2023-07-29T12:57:45;25.40;51.70
75819;DHT22;64453;51.944;9.796;2023-07-29T13:00:13;25.40;51.80
75819;DHT22;64453;51.944;9.796;2023-07-29T13:02:41;25.70;51.60
75819;DHT22;64453;51.944;9.796;2023-07-29T13:05:10;25.60;49.40
75819;DHT22;64453;51.944;9.796;2023-07-29T13:07:38;25.80;50.80
75819;DHT22;64453;51.944;9.796;2023-07-29T13:10:06;25.20;50.90
75819;DHT22;64453;51.944;9.796;2023-07-29T13:12:36;25.40;52.10
75819;DHT22;64453;51.944;9.796;2023-07-29T13:15:04;25.50;51.70
75819;DHT22;64453;51.944;9.796;2023-07-29T13:17:32;25.40;52.00
75819;DHT22;64453;51.944;9.796;2023-07-29T13:19:59;25.40;52.50
75819;DHT22;64453;51.944;9.796;2023-07-29T13:22:27;25.50;52.30
75819;DHT22;64453;51.944;9.796;2023-07-29T13:24:55;25.60;50.90
75819;DHT22;64453;51.944;9.796;2023-07-29T13:27:22;25.50;51.70
75819;DHT22;64453;51.944;9.796;2023-07-29T13:29:52;25.60;52.50
75819;DHT22;64453;51.944;9.796;2023-07-29T13:32:19;25.90;52.10
75819;DHT22;64453;51.944;9.796;2023-07-29T13:34:46;25.90;51.40
75819;DHT22;64453;51.944;9.796;2023-07-29T13:37:13;25.60;51.40
75819;DHT22;64453;51.944;9.796;2023-07-29T13:39:40;25.90;51.60
75819;DHT22;64453;51.944;9.796;2023-07-29T13:42:07;25.90;51.20
75819;DHT22;64453;51.944;9.796;2023-07-29T13:44:35;25.90;50.50
75819;DHT22;64453;51.944;9.796;2023-07-29T13:47:04;25.90;50.80
75819;DHT22;64453;51.944;9.796;2023-07-29T13:49:32;25.80;51.00
75819;DHT22;64453;51.944;9.796;2023-07-29T13:51:59;25.90;51.20
75819;DHT22;64453;51.944;9.796;2023-07-29T13:54:28;25.90;50.60
75819;DHT22;64453;51.944;9.796;2023-07-29T13:56:55;26.00;51.30
75819;DHT22;64453;51.944;9.796;2023-07-29T13:59:23;26.10;49.90
75819;DHT22;64453;51.944;9.796;2023-07-29T14:01:50;25.70;49.70
75819;DHT22;64453;51.944;9.796;2023-07-29T14:04:19;25.80;50.10
75819;DHT22;64453;51.944;9.796;2023-07-29T14:06:46;26.00;51.00
75819;DHT22;64453;51.944;9.796;2023-07-29T14:09:13;25.80;49.60
75819;DHT22;64453;51.944;9.796;2023-07-29T14:11:40;25.70;49.20
75819;DHT22;64453;51.944;9.796;2023-07-29T14:14:08;26.00;50.50
75819;DHT22;64453;51.944;9.796;2023-07-29T14:16:36;26.50;49.60
75819;DHT22;64453;51.944;9.796;2023-07-29T14:19:04;26.10;49.10
75819;DHT22;64453;51.944;9.796;2023-07-29T14:21:33;26.40;50.30
75819;DHT22;64453;51.944;9.796;2023-07-29T14:24:00;26.50;49.40
75819;DHT22;64453;51.944;9.796;2023-07-29T14:26:28;26.30;50.50
75819;DHT22;64453;51.944;9.796;2023-07-29T14:28:55;26.10;49.80
75819;DHT22;64453;51.944;9.796;2023-07-29T14:31:22;26.20;50.50
75819;DHT22;64453;51.944;9.796;2023-07-29T14:33:50;26.20;48.70
75819;DHT22;64453;51.944;9.796;2023-07-29T14:36:17;25.90;48.20
75819;DHT22;64453;51.944;9.796;2023-07-29T14:38:46;25.90;48.70
75819;DHT22;64453;51.944;9.796;2023-07-29T14:41:13;26.10;48.90
75819;DHT22;64453;51.944;9.796;2023-07-29T14:43:40;26.10;49.40
75819;DHT22;64453;51.944;9.796;2023-07-29T14:46:08;26.30;49.70
75819;DHT22;64453;51.944;9.796;2023-07-29T14:48:35;26.10;50.90
75819;DHT22;64453;51.944;9.796;2023-07-29T14:51:02;26.20;50.00
75819;DHT22;64453;51.944;9.796;2023-07-29T14:53:29;25.90;50.10
75819;DHT22;64453;51.944;9.796;2023-07-29T14:55:58;26.00;49.80
75819;DHT22;64453;51.944;9.796;2023-07-29T14:58:26;26.20;50.30
75819;DHT22;64453;51.944;9.796;2023-07-29T15:00:53;26.60;50.70
75819;DHT22;64453;51.944;9.796;2023-07-29T15:03:20;26.30;49.30
75819;DHT22;64453;51.944;9.796;2023-07-29T15:05:47;26.20;49.90
75819;DHT22;64453;51.944;9.796;2023-07-29T15:08:15;26.40;49.70
75819;DHT22;64453;51.944;9.796;2023-07-29T15:10:45;26.50;50.30
75819;DHT22;64453;51.944;9.796;2023-07-29T15:13:14;26.10;50.10
75819;DHT22;64453;51.944;9.796;2023-07-29T15:15:42;25.80;51.00
75819;DHT22;64453;51.944;9.796;2023-07-29T15:18:09;25.90;51.00
75819;DHT22;64453;51.944;9.796;2023-07-29T15:20:37;25.70;50.60
75819;DHT22;64453;51.944;9.796;2023-07-29T15:23:04;25.20;51.30
75819;DHT22;64453;51.944;9.796;2023-07-29T15:25:31;25.50;51.00
75819;DHT22;64453;51.944;9.796;2023-07-29T15:27:58;25.40;50.90
75819;DHT22;64453;51.944;9.796;2023-07-29T15:30:28;25.70;50.90
75819;DHT22;64453;51.944;9.796;2023-07-29T15:32:55;25.40;50.20
75819;DHT22;64453;51.944;9.796;2023-07-29T15:35:22;25.20;50.10
75819;DHT22;64453;51.944;9.796;2023-07-29T15:37:50;25.00;50.00